Woodworth, LA (71485)

7:02 AM CST on February 11, 2016 (GMT -0600)
Cherokee Village | | Change Station
CLOSE
Current Station
Personal Weather Station
Location: Alexandria, LA
Elevation: 77 ft
Nearby Weather Stations

Elev 77 ft 31.26 °N, 92.48 °W | Updated 3 seconds ago

Clear
Clear
50.4 °F
Feels Like 50.4 °F
N
0.0
Wind Variable Wind from SW
Gusts 0.0 mph

Today
High -- | Low -- °F
--% Chance of Precip.
Yesterday
High -- | Low -- °F
Precip. -- in
Pressure 30.16 in
Visibility 10.0 miles
Clouds Clear
Dew Point 46 °F
Humidity 86%
Rainfall 0.00 in
Snow Depth Not available.
6:55 AM 5:53 PM
Waxing Crescent, 12% visible
METAR KAEX 111253Z AUTO 17003KT 10SM CLR 08/08 A3014 RMK AO2 SLP211 T00830078 TSNO
Pressure 30.16 in
Visibility 10.0 miles
Clouds Clear
Dew Point 46 °F
Humidity 86%
Rainfall 0.00 in
Snow Depth Not available.
6:55 AM 5:53 PM
Waxing Crescent, 12% visible
METAR KAEX 111253Z AUTO 17003KT 10SM CLR 08/08 A3014 RMK AO2 SLP211 T00830078 TSNO

10-Day Weather Forecast

Almanac

Astronomy

Feb. 11, 2016 Rise Set
Actual Time
Civil Twilight
Nautical Twilight
Astronomical Twilight
Moon
Length of Visible Light
Length of Day
Tomorrow will be .
, % of the Moon is Illuminated

Today's Extremes

State Highs State Lows

Community

WunderPhotos

Upload Photos

1,892,038 photos uploaded!

WunderBlog® & News

Nearby

Air Quality

  Air Quality AQ Index Pollutant
Not available.

Snow Depth

Station Depth Elevation

Earthquake Activity

City Distance Mag. Time & Date
Minimum magnitude displayed is 2.5.

Coastal Water Temperatures

Place Temperature

Stations

Nearby Weather Stations

Station Location Temp. Windchill Dew Point Humidity Wind Precip. Elev Updated Type
                   

Watches & Warnings

There are currently no watches in effect.